Duque Bacelar, Brazil
Current Conditions -  °F | °C
As of 3:00 PM on Friday 28 Nov 2014 (Local Time) from SBTE Reporting Station
Few Clouds Few Clouds  
Wind Chill: 99°   Ceiling: Unl
Heat Index: 101°   Visibility: 6mi
Dew Point: 64°   Wind: 8mph
Humidity: 32%   Direction: 220°SW
Pressure: 29.74"   Gusts: NA
Location:  4.29°S, 42.99°W
Report Text: SBTE 281800Z 22007KT 9999 FEW040 37/18 Q1007
Loading
Personal Weather Stations






























Interactive Weather Map New forecast layout! Learn more

10-Day Weather Forecast

Advertisements
Track Severe Weather on mobile